sensor_id;sensor_type;location;lat;lon;timestamp;pressure;altitude;pressure_sealevel;temperature;humidity
55474;BME280;65220;52.214;0.116;2022-12-16T00:01:52;101356.76;;;14.62;22.99
55474;BME280;65220;52.214;0.116;2022-12-16T00:04:17;101355.57;;;15.22;23.02
55474;BME280;65220;52.214;0.116;2022-12-16T00:06:43;101358.10;;;15.10;22.91
55474;BME280;65220;52.214;0.116;2022-12-16T00:09:08;101364.45;;;15.16;22.89
55474;BME280;65220;52.214;0.116;2022-12-16T00:11:33;101364.79;;;15.09;23.05
55474;BME280;65220;52.214;0.116;2022-12-16T00:13:59;101363.32;;;14.77;22.97
55474;BME280;65220;52.214;0.116;2022-12-16T00:16:24;101364.67;;;14.91;22.90
55474;BME280;65220;52.214;0.116;2022-12-16T00:18:49;101366.36;;;15.56;22.99
55474;BME280;65220;52.214;0.116;2022-12-16T00:21:15;101361.90;;;14.98;22.78
55474;BME280;65220;52.214;0.116;2022-12-16T00:23:40;101363.95;;;15.32;23.04
55474;BME280;65220;52.214;0.116;2022-12-16T00:26:05;101369.56;;;15.14;22.75
55474;BME280;65220;52.214;0.116;2022-12-16T00:28:30;101371.79;;;14.68;23.12
55474;BME280;65220;52.214;0.116;2022-12-16T00:30:56;101373.42;;;14.74;22.79
55474;BME280;65220;52.214;0.116;2022-12-16T00:33:23;101373.43;;;15.17;22.79
55474;BME280;65220;52.214;0.116;2022-12-16T00:35:47;101375.02;;;15.67;22.69
55474;BME280;65220;52.214;0.116;2022-12-16T00:38:12;101373.23;;;15.25;22.77
55474;BME280;65220;52.214;0.116;2022-12-16T00:40:37;101371.95;;;14.87;22.76
55474;BME280;65220;52.214;0.116;2022-12-16T00:43:02;101374.13;;;14.76;22.79
55474;BME280;65220;52.214;0.116;2022-12-16T00:45:28;101377.88;;;14.17;22.90
55474;BME280;65220;52.214;0.116;2022-12-16T00:47:53;101376.55;;;14.90;22.72
55474;BME280;65220;52.214;0.116;2022-12-16T00:50:18;101371.80;;;14.43;22.87
55474;BME280;65220;52.214;0.116;2022-12-16T00:52:44;101371.94;;;14.28;22.92
55474;BME280;65220;52.214;0.116;2022-12-16T00:55:09;101377.43;;;15.38;22.58
55474;BME280;65220;52.214;0.116;2022-12-16T00:57:34;101374.19;;;15.10;22.82
55474;BME280;65220;52.214;0.116;2022-12-16T00:59:59;101374.50;;;15.83;22.38
55474;BME280;65220;52.214;0.116;2022-12-16T01:02:24;101373.51;;;15.33;22.62
55474;BME280;65220;52.214;0.116;2022-12-16T01:04:50;101375.30;;;14.65;22.75
55474;BME280;65220;52.214;0.116;2022-12-16T01:07:15;101375.15;;;15.24;22.59
55474;BME280;65220;52.214;0.116;2022-12-16T01:09:40;101381.21;;;14.65;22.71
55474;BME280;65220;52.214;0.116;2022-12-16T01:12:06;101383.52;;;15.02;22.50
55474;BME280;65220;52.214;0.116;2022-12-16T01:14:31;101392.00;;;15.17;22.51
55474;BME280;65220;52.214;0.116;2022-12-16T01:16:56;101391.55;;;15.28;22.64
55474;BME280;65220;52.214;0.116;2022-12-16T01:19:21;101396.40;;;15.05;22.72
55474;BME280;65220;52.214;0.116;2022-12-16T01:21:46;101399.06;;;14.52;22.84
55474;BME280;65220;52.214;0.116;2022-12-16T01:24:12;101398.08;;;15.12;22.46
55474;BME280;65220;52.214;0.116;2022-12-16T01:26:37;101402.05;;;14.97;22.73
55474;BME280;65220;52.214;0.116;2022-12-16T01:29:02;101404.70;;;15.03;22.70
55474;BME280;65220;52.214;0.116;2022-12-16T01:31:27;101408.50;;;15.07;22.60
55474;BME280;65220;52.214;0.116;2022-12-16T01:33:53;101410.73;;;14.91;22.51
55474;BME280;65220;52.214;0.116;2022-12-16T01:36:19;101418.20;;;15.35;22.39
55474;BME280;65220;52.214;0.116;2022-12-16T01:38:44;101414.25;;;14.73;22.61
55474;BME280;65220;52.214;0.116;2022-12-16T01:41:11;101414.56;;;14.80;22.41
55474;BME280;65220;52.214;0.116;2022-12-16T01:43:37;101414.11;;;14.28;22.54
55474;BME280;65220;52.214;0.116;2022-12-16T01:46:04;101416.78;;;14.51;22.53
55474;BME280;65220;52.214;0.116;2022-12-16T01:48:34;101419.73;;;14.54;22.46
55474;BME280;65220;52.214;0.116;2022-12-16T01:50:54;101423.36;;;14.45;22.53
55474;BME280;65220;52.214;0.116;2022-12-16T01:53:18;101427.81;;;14.60;22.59
55474;BME280;65220;52.214;0.116;2022-12-16T01:55:47;101433.31;;;14.27;22.64
55474;BME280;65220;52.214;0.116;2022-12-16T01:58:11;101432.68;;;14.04;22.67
55474;BME280;65220;52.214;0.116;2022-12-16T02:00:34;101432.72;;;14.75;22.56
55474;BME280;65220;52.214;0.116;2022-12-16T02:02:59;101437.82;;;15.39;22.25
55474;BME280;65220;52.214;0.116;2022-12-16T02:05:25;101439.42;;;14.72;22.60
55474;BME280;65220;52.214;0.116;2022-12-16T02:07:55;101438.80;;;14.67;22.57
55474;BME280;65220;52.214;0.116;2022-12-16T02:10:16;101438.93;;;14.82;22.57
55474;BME280;65220;52.214;0.116;2022-12-16T02:12:45;101444.24;;;14.17;22.80
55474;BME280;65220;52.214;0.116;2022-12-16T02:15:13;101442.38;;;14.83;22.50
55474;BME280;65220;52.214;0.116;2022-12-16T02:17:37;101443.66;;;14.51;22.60
55474;BME280;65220;52.214;0.116;2022-12-16T02:22:19;101442.27;;;14.28;22.90
55474;BME280;65220;52.214;0.116;2022-12-16T02:24:54;101449.40;;;12.81;22.90
55474;BME280;65220;52.214;0.116;2022-12-16T02:27:20;101451.76;;;13.10;22.48
55474;BME280;65220;52.214;0.116;2022-12-16T02:29:40;101457.12;;;14.51;22.31
55474;BME280;65220;52.214;0.116;2022-12-16T02:31:55;101459.84;;;14.62;22.54
55474;BME280;65220;52.214;0.116;2022-12-16T02:34:20;101465.82;;;15.16;22.32
55474;BME280;65220;52.214;0.116;2022-12-16T02:36:51;101463.46;;;14.31;22.59
55474;BME280;65220;52.214;0.116;2022-12-16T02:39:13;101463.81;;;14.27;22.58
55474;BME280;65220;52.214;0.116;2022-12-16T02:41:41;101460.45;;;14.29;22.64
55474;BME280;65220;52.214;0.116;2022-12-16T02:44:02;101458.72;;;14.22;22.65
55474;BME280;65220;52.214;0.116;2022-12-16T02:46:31;101458.20;;;14.10;22.56
55474;BME280;65220;52.214;0.116;2022-12-16T02:48:49;101458.88;;;14.31;22.59
55474;BME280;65220;52.214;0.116;2022-12-16T02:51:15;101460.68;;;14.58;22.46
55474;BME280;65220;52.214;0.116;2022-12-16T02:53:42;101463.70;;;14.13;22.67
55474;BME280;65220;52.214;0.116;2022-12-16T02:56:14;101461.86;;;14.23;22.45
55474;BME280;65220;52.214;0.116;2022-12-16T02:58:35;101463.76;;;14.12;22.60
55474;BME280;65220;52.214;0.116;2022-12-16T03:01:02;101467.60;;;14.25;22.36
55474;BME280;65220;52.214;0.116;2022-12-16T03:03:26;101474.57;;;14.66;22.36
55474;BME280;65220;52.214;0.116;2022-12-16T03:05:49;101476.42;;;14.17;22.47
55474;BME280;65220;52.214;0.116;2022-12-16T03:08:16;101478.40;;;14.64;22.32
55474;BME280;65220;52.214;0.116;2022-12-16T03:10:50;101480.97;;;14.68;22.30
55474;BME280;65220;52.214;0.116;2022-12-16T03:13:05;101485.16;;;13.99;22.42
55474;BME280;65220;52.214;0.116;2022-12-16T03:15:32;101487.48;;;14.50;22.27
55474;BME280;65220;52.214;0.116;2022-12-16T03:17:56;101482.72;;;14.96;22.12
55474;BME280;65220;52.214;0.116;2022-12-16T03:20:25;101481.37;;;14.99;22.09
55474;BME280;65220;52.214;0.116;2022-12-16T03:22:47;101479.80;;;14.58;22.03
55474;BME280;65220;52.214;0.116;2022-12-16T03:25:11;101482.42;;;14.62;21.96
55474;BME280;65220;52.214;0.116;2022-12-16T03:27:44;101483.72;;;14.96;21.94
55474;BME280;65220;52.214;0.116;2022-12-16T03:30:05;101478.28;;;14.33;22.06
55474;BME280;65220;52.214;0.116;2022-12-16T03:32:33;101480.04;;;14.74;21.82
55474;BME280;65220;52.214;0.116;2022-12-16T03:34:58;101478.71;;;14.79;21.96
55474;BME280;65220;52.214;0.116;2022-12-16T03:37:22;101479.77;;;14.76;21.92
55474;BME280;65220;52.214;0.116;2022-12-16T03:39:47;101479.51;;;14.62;21.78
55474;BME280;65220;52.214;0.116;2022-12-16T03:42:10;101480.51;;;15.00;21.54
55474;BME280;65220;52.214;0.116;2022-12-16T03:44:36;101477.22;;;15.00;21.77
55474;BME280;65220;52.214;0.116;2022-12-16T03:47:01;101475.86;;;14.72;21.90
55474;BME280;65220;52.214;0.116;2022-12-16T03:49:27;101474.69;;;14.99;21.68
55474;BME280;65220;52.214;0.116;2022-12-16T03:51:53;101474.88;;;14.59;21.82
55474;BME280;65220;52.214;0.116;2022-12-16T03:54:18;101480.16;;;14.75;21.75
55474;BME280;65220;52.214;0.116;2022-12-16T03:56:43;101481.23;;;14.66;21.69
55474;BME280;65220;52.214;0.116;2022-12-16T03:59:08;101482.01;;;14.31;21.80
55474;BME280;65220;52.214;0.116;2022-12-16T04:01:34;101482.57;;;14.28;21.98
55474;BME280;65220;52.214;0.116;2022-12-16T04:03:59;101482.16;;;14.66;21.84
55474;BME280;65220;52.214;0.116;2022-12-16T04:06:25;101481.54;;;14.53;21.80
55474;BME280;65220;52.214;0.116;2022-12-16T04:08:50;101483.52;;;14.87;21.70
55474;BME280;65220;52.214;0.116;2022-12-16T04:11:16;101486.15;;;14.55;21.82
55474;BME280;65220;52.214;0.116;2022-12-16T04:13:41;101490.98;;;14.62;21.70
55474;BME280;65220;52.214;0.116;2022-12-16T04:16:08;101494.72;;;14.56;21.87
55474;BME280;65220;52.214;0.116;2022-12-16T04:18:32;101497.60;;;14.25;22.03
55474;BME280;65220;52.214;0.116;2022-12-16T04:20:57;101501.74;;;14.24;21.92
55474;BME280;65220;52.214;0.116;2022-12-16T04:23:24;101506.03;;;13.99;22.07
55474;BME280;65220;52.214;0.116;2022-12-16T04:25:49;101504.61;;;14.14;22.04
55474;BME280;65220;52.214;0.116;2022-12-16T04:28:14;101509.66;;;13.35;22.23
55474;BME280;65220;52.214;0.116;2022-12-16T04:30:40;101511.41;;;13.36;22.27
55474;BME280;65220;52.214;0.116;2022-12-16T04:33:09;101512.40;;;13.41;22.19
55474;BME280;65220;52.214;0.116;2022-12-16T04:35:32;101518.31;;;13.40;22.23
55474;BME280;65220;52.214;0.116;2022-12-16T04:37:57;101520.70;;;13.54;22.18
55474;BME280;65220;52.214;0.116;2022-12-16T04:40:23;101513.88;;;12.99;22.14
55474;BME280;65220;52.214;0.116;2022-12-16T04:42:48;101513.90;;;13.47;22.19
55474;BME280;65220;52.214;0.116;2022-12-16T04:45:14;101514.51;;;13.89;22.03
55474;BME280;65220;52.214;0.116;2022-12-16T04:47:39;101516.63;;;13.56;22.08
55474;BME280;65220;52.214;0.116;2022-12-16T04:50:05;101518.45;;;13.49;22.11
55474;BME280;65220;52.214;0.116;2022-12-16T04:52:30;101519.62;;;13.66;22.17
55474;BME280;65220;52.214;0.116;2022-12-16T04:54:56;101510.10;;;13.92;22.06
55474;BME280;65220;52.214;0.116;2022-12-16T04:57:21;101508.02;;;13.53;22.13
55474;BME280;65220;52.214;0.116;2022-12-16T04:59:46;101507.27;;;13.68;22.12
55474;BME280;65220;52.214;0.116;2022-12-16T05:02:12;101509.01;;;13.82;21.93
55474;BME280;65220;52.214;0.116;2022-12-16T05:04:37;101508.31;;;13.91;21.97
55474;BME280;65220;52.214;0.116;2022-12-16T05:07:03;101508.15;;;13.93;21.88
55474;BME280;65220;52.214;0.116;2022-12-16T05:09:28;101512.12;;;13.48;22.12
55474;BME280;65220;52.214;0.116;2022-12-16T05:11:54;101518.00;;;13.54;22.17
55474;BME280;65220;52.214;0.116;2022-12-16T05:14:20;101513.19;;;13.99;22.01
55474;BME280;65220;52.214;0.116;2022-12-16T05:16:45;101520.42;;;13.45;22.14
55474;BME280;65220;52.214;0.116;2022-12-16T05:19:11;101518.17;;;14.04;21.90
55474;BME280;65220;52.214;0.116;2022-12-16T05:21:36;101521.83;;;13.79;22.16
55474;BME280;65220;52.214;0.116;2022-12-16T05:24:01;101519.34;;;14.28;21.88
55474;BME280;65220;52.214;0.116;2022-12-16T05:26:27;101517.49;;;13.74;22.08
55474;BME280;65220;52.214;0.116;2022-12-16T05:28:53;101515.75;;;13.84;21.89
55474;BME280;65220;52.214;0.116;2022-12-16T05:31:18;101515.68;;;13.89;21.90
55474;BME280;65220;52.214;0.116;2022-12-16T05:33:44;101517.77;;;14.23;21.99
55474;BME280;65220;52.214;0.116;2022-12-16T05:36:09;101518.76;;;13.63;22.05
55474;BME280;65220;52.214;0.116;2022-12-16T05:38:34;101518.90;;;14.14;22.05
55474;BME280;65220;52.214;0.116;2022-12-16T05:41:00;101523.83;;;13.41;22.18
55474;BME280;65220;52.214;0.116;2022-12-16T05:43:25;101519.55;;;14.24;21.80
55474;BME280;65220;52.214;0.116;2022-12-16T05:45:51;101521.18;;;13.64;21.86
55474;BME280;65220;52.214;0.116;2022-12-16T05:48:16;101524.80;;;13.97;21.84
55474;BME280;65220;52.214;0.116;2022-12-16T05:50:41;101523.75;;;14.63;21.47
55474;BME280;65220;52.214;0.116;2022-12-16T05:53:07;101523.16;;;14.83;21.34
55474;BME280;65220;52.214;0.116;2022-12-16T05:55:32;101532.36;;;14.41;21.59
55474;BME280;65220;52.214;0.116;2022-12-16T05:57:58;101534.42;;;14.83;21.33
55474;BME280;65220;52.214;0.116;2022-12-16T06:00:24;101535.76;;;14.85;21.36
55474;BME280;65220;52.214;0.116;2022-12-16T06:02:49;101537.24;;;15.16;21.28
55474;BME280;65220;52.214;0.116;2022-12-16T06:05:14;101536.36;;;14.77;21.32
55474;BME280;65220;52.214;0.116;2022-12-16T06:07:39;101537.91;;;14.83;21.30
55474;BME280;65220;52.214;0.116;2022-12-16T06:10:05;101535.45;;;15.10;21.22
55474;BME280;65220;52.214;0.116;2022-12-16T06:12:30;101537.31;;;15.55;21.13
55474;BME280;65220;52.214;0.116;2022-12-16T06:14:56;101546.29;;;15.26;21.25
55474;BME280;65220;52.214;0.116;2022-12-16T06:17:21;101542.66;;;15.44;21.23
55474;BME280;65220;52.214;0.116;2022-12-16T06:19:46;101551.15;;;15.38;21.15
55474;BME280;65220;52.214;0.116;2022-12-16T06:22:11;101542.68;;;15.15;21.20
55474;BME280;65220;52.214;0.116;2022-12-16T06:24:37;101547.85;;;15.49;21.09
55474;BME280;65220;52.214;0.116;2022-12-16T06:27:02;101545.79;;;14.60;21.47
55474;BME280;65220;52.214;0.116;2022-12-16T06:29:27;101548.70;;;14.92;21.36
55474;BME280;65220;52.214;0.116;2022-12-16T06:31:52;101549.35;;;15.31;21.27
55474;BME280;65220;52.214;0.116;2022-12-16T06:34:18;101555.86;;;15.24;21.21
55474;BME280;65220;52.214;0.116;2022-12-16T06:36:43;101555.75;;;15.41;21.05
55474;BME280;65220;52.214;0.116;2022-12-16T06:39:08;101556.97;;;14.91;21.39
55474;BME280;65220;52.214;0.116;2022-12-16T06:41:34;101558.47;;;15.29;21.09
55474;BME280;65220;52.214;0.116;2022-12-16T06:43:59;101559.87;;;14.84;21.21
55474;BME280;65220;52.214;0.116;2022-12-16T06:46:24;101564.17;;;15.57;20.99
55474;BME280;65220;52.214;0.116;2022-12-16T06:48:49;101566.14;;;15.58;21.07
55474;BME280;65220;52.214;0.116;2022-12-16T06:51:15;101569.16;;;16.06;20.86
55474;BME280;65220;52.214;0.116;2022-12-16T06:53:40;101571.27;;;15.70;21.07
55474;BME280;65220;52.214;0.116;2022-12-16T06:56:05;101570.03;;;15.57;21.05
55474;BME280;65220;52.214;0.116;2022-12-16T06:58:31;101570.29;;;15.12;21.16
55474;BME280;65220;52.214;0.116;2022-12-16T07:00:56;101569.32;;;15.40;21.10
55474;BME280;65220;52.214;0.116;2022-12-16T07:03:21;101572.91;;;15.05;21.25
55474;BME280;65220;52.214;0.116;2022-12-16T07:05:51;101575.47;;;15.16;21.11
55474;BME280;65220;52.214;0.116;2022-12-16T07:08:12;101578.30;;;15.34;21.11
55474;BME280;65220;52.214;0.116;2022-12-16T07:10:38;101580.35;;;15.29;21.02
55474;BME280;65220;52.214;0.116;2022-12-16T07:13:03;101578.85;;;15.38;21.01
55474;BME280;65220;52.214;0.116;2022-12-16T07:15:28;101578.40;;;15.28;21.10
55474;BME280;65220;52.214;0.116;2022-12-16T07:17:54;101578.85;;;15.92;20.75
55474;BME280;65220;52.214;0.116;2022-12-16T07:20:19;101581.33;;;15.61;20.91
55474;BME280;65220;52.214;0.116;2022-12-16T07:22:44;101583.46;;;15.32;20.84
55474;BME280;65220;52.214;0.116;2022-12-16T07:25:09;101588.42;;;15.55;20.83
55474;BME280;65220;52.214;0.116;2022-12-16T07:27:34;101593.89;;;15.15;20.90
55474;BME280;65220;52.214;0.116;2022-12-16T07:30:00;101597.92;;;15.17;20.99
55474;BME280;65220;52.214;0.116;2022-12-16T07:32:26;101602.46;;;14.29;21.26
55474;BME280;65220;52.214;0.116;2022-12-16T07:34:51;101609.16;;;15.20;20.85
55474;BME280;65220;52.214;0.116;2022-12-16T07:37:17;101611.10;;;14.87;20.98
55474;BME280;65220;52.214;0.116;2022-12-16T07:39:42;101611.63;;;14.83;20.85
55474;BME280;65220;52.214;0.116;2022-12-16T07:42:07;101611.12;;;14.14;21.19
55474;BME280;65220;52.214;0.116;2022-12-16T07:44:32;101615.22;;;14.95;20.94
55474;BME280;65220;52.214;0.116;2022-12-16T07:46:57;101619.12;;;15.09;20.93
55474;BME280;65220;52.214;0.116;2022-12-16T07:49:23;101623.60;;;14.00;21.27
55474;BME280;65220;52.214;0.116;2022-12-16T07:51:48;101623.40;;;15.19;20.79
55474;BME280;65220;52.214;0.116;2022-12-16T07:54:13;101625.25;;;14.17;21.11
55474;BME280;65220;52.214;0.116;2022-12-16T07:56:38;101626.96;;;14.80;21.11
55474;BME280;65220;52.214;0.116;2022-12-16T07:59:04;101633.00;;;14.93;20.86
55474;BME280;65220;52.214;0.116;2022-12-16T08:01:29;101632.35;;;15.39;20.71
55474;BME280;65220;52.214;0.116;2022-12-16T08:03:54;101634.22;;;14.50;21.06
55474;BME280;65220;52.214;0.116;2022-12-16T08:06:19;101638.53;;;15.36;20.71
55474;BME280;65220;52.214;0.116;2022-12-16T08:08:45;101642.33;;;14.71;20.96
55474;BME280;65220;52.214;0.116;2022-12-16T08:11:10;101647.15;;;14.78;21.32
55474;BME280;65220;52.214;0.116;2022-12-16T08:13:35;101652.75;;;14.98;21.28
55474;BME280;65220;52.214;0.116;2022-12-16T08:16:01;101661.08;;;14.97;21.52
55474;BME280;65220;52.214;0.116;2022-12-16T08:18:26;101665.27;;;15.69;21.27
55474;BME280;65220;52.214;0.116;2022-12-16T08:20:51;101668.05;;;14.98;21.59
55474;BME280;65220;52.214;0.116;2022-12-16T08:23:16;101669.43;;;15.90;21.36
55474;BME280;65220;52.214;0.116;2022-12-16T08:25:41;101669.02;;;15.10;21.91
55474;BME280;65220;52.214;0.116;2022-12-16T08:28:07;101671.06;;;14.97;21.79
55474;BME280;65220;52.214;0.116;2022-12-16T08:30:32;101678.01;;;15.14;21.71
55474;BME280;65220;52.214;0.116;2022-12-16T08:32:57;101681.75;;;15.76;21.53
55474;BME280;65220;52.214;0.116;2022-12-16T08:35:22;101682.53;;;15.11;21.82
55474;BME280;65220;52.214;0.116;2022-12-16T08:37:48;101690.05;;;15.83;21.57
55474;BME280;65220;52.214;0.116;2022-12-16T08:40:14;101690.41;;;15.46;21.63
55474;BME280;65220;52.214;0.116;2022-12-16T08:42:40;101692.47;;;15.31;21.85
55474;BME280;65220;52.214;0.116;2022-12-16T08:45:05;101695.27;;;15.50;21.57
55474;BME280;65220;52.214;0.116;2022-12-16T08:47:30;101695.64;;;15.87;21.63
55474;BME280;65220;52.214;0.116;2022-12-16T08:49:55;101700.59;;;16.22;21.55
55474;BME280;65220;52.214;0.116;2022-12-16T08:52:20;101704.59;;;15.85;21.66
55474;BME280;65220;52.214;0.116;2022-12-16T08:54:46;101703.27;;;15.82;21.53
55474;BME280;65220;52.214;0.116;2022-12-16T08:57:11;101704.34;;;15.91;21.47
55474;BME280;65220;52.214;0.116;2022-12-16T08:59:37;101708.34;;;15.45;21.72
55474;BME280;65220;52.214;0.116;2022-12-16T09:02:03;101708.00;;;15.59;21.48
55474;BME280;65220;52.214;0.116;2022-12-16T09:04:28;101711.48;;;15.54;21.49
55474;BME280;65220;52.214;0.116;2022-12-16T09:06:53;101714.77;;;15.25;21.43
55474;BME280;65220;52.214;0.116;2022-12-16T09:09:18;101714.50;;;14.99;21.62
55474;BME280;65220;52.214;0.116;2022-12-16T09:11:44;101712.57;;;15.70;21.39
55474;BME280;65220;52.214;0.116;2022-12-16T09:14:09;101713.35;;;14.59;21.72
55474;BME280;65220;52.214;0.116;2022-12-16T09:16:34;101715.23;;;15.10;21.47
55474;BME280;65220;52.214;0.116;2022-12-16T09:18:59;101717.49;;;14.71;21.52
55474;BME280;65220;52.214;0.116;2022-12-16T09:21:25;101722.12;;;14.88;21.45
55474;BME280;65220;52.214;0.116;2022-12-16T09:23:50;101729.08;;;15.50;21.23
55474;BME280;65220;52.214;0.116;2022-12-16T09:26:15;101730.82;;;14.53;21.76
55474;BME280;65220;52.214;0.116;2022-12-16T09:28:40;101734.77;;;14.98;21.45
55474;BME280;65220;52.214;0.116;2022-12-16T09:31:07;101738.51;;;14.56;21.38
55474;BME280;65220;52.214;0.116;2022-12-16T09:33:32;101742.94;;;14.62;21.57
55474;BME280;65220;52.214;0.116;2022-12-16T09:35:57;101740.29;;;15.82;21.28
55474;BME280;65220;52.214;0.116;2022-12-16T09:38:22;101743.96;;;15.11;21.31
55474;BME280;65220;52.214;0.116;2022-12-16T09:40:47;101740.38;;;15.41;21.08
55474;BME280;65220;52.214;0.116;2022-12-16T09:43:26;101741.16;;;14.76;21.34
55474;BME280;65220;52.214;0.116;2022-12-16T09:45:44;101742.87;;;14.91;21.22
55474;BME280;65220;52.214;0.116;2022-12-16T09:48:09;101746.07;;;14.62;21.44
55474;BME280;65220;52.214;0.116;2022-12-16T09:50:30;101744.97;;;14.59;21.39
55474;BME280;65220;52.214;0.116;2022-12-16T09:52:58;101749.24;;;14.61;21.22
55474;BME280;65220;52.214;0.116;2022-12-16T09:55:23;101746.74;;;15.23;21.31
55474;BME280;65220;52.214;0.116;2022-12-16T09:57:44;101751.20;;;15.01;21.20
55474;BME280;65220;52.214;0.116;2022-12-16T10:00:19;101753.17;;;15.57;21.14
55474;BME280;65220;52.214;0.116;2022-12-16T10:02:35;101758.93;;;15.07;21.31
55474;BME280;65220;52.214;0.116;2022-12-16T10:05:00;101762.09;;;15.14;21.56
55474;BME280;65220;52.214;0.116;2022-12-16T10:07:29;101764.61;;;15.18;21.13
55474;BME280;65220;52.214;0.116;2022-12-16T10:09:59;101766.90;;;15.00;21.10
55474;BME280;65220;52.214;0.116;2022-12-16T10:12:23;101767.97;;;15.13;21.10
55474;BME280;65220;52.214;0.116;2022-12-16T10:14:46;101766.61;;;15.27;21.18
55474;BME280;65220;52.214;0.116;2022-12-16T10:17:11;101767.32;;;15.25;21.30
55474;BME280;65220;52.214;0.116;2022-12-16T10:19:40;101767.16;;;15.19;21.36
55474;BME280;65220;52.214;0.116;2022-12-16T10:22:05;101772.80;;;15.06;21.46
55474;BME280;65220;52.214;0.116;2022-12-16T10:24:32;101771.49;;;15.19;21.20
55474;BME280;65220;52.214;0.116;2022-12-16T10:26:54;101770.82;;;14.78;21.09
55474;BME280;65220;52.214;0.116;2022-12-16T10:29:18;101774.66;;;15.10;21.12
55474;BME280;65220;52.214;0.116;2022-12-16T10:31:39;101775.87;;;14.85;21.15
55474;BME280;65220;52.214;0.116;2022-12-16T10:34:09;101777.35;;;14.87;21.17
55474;BME280;65220;52.214;0.116;2022-12-16T10:36:30;101776.99;;;15.45;21.54
55474;BME280;65220;52.214;0.116;2022-12-16T10:39:00;101774.98;;;15.38;21.53
55474;BME280;65220;52.214;0.116;2022-12-16T10:41:24;101777.71;;;15.17;21.29
55474;BME280;65220;52.214;0.116;2022-12-16T10:43:46;101780.14;;;15.17;21.15
55474;BME280;65220;52.214;0.116;2022-12-16T10:46:14;101777.47;;;14.75;21.47
55474;BME280;65220;52.214;0.116;2022-12-16T10:48:36;101776.49;;;14.69;21.10
55474;BME280;65220;52.214;0.116;2022-12-16T10:51:08;101782.66;;;15.36;21.43
55474;BME280;65220;52.214;0.116;2022-12-16T10:53:27;101780.69;;;14.96;21.55
55474;BME280;65220;52.214;0.116;2022-12-16T10:56:02;101779.43;;;15.10;21.45
55474;BME280;65220;52.214;0.116;2022-12-16T10:58:24;101772.34;;;15.30;21.49
55474;BME280;65220;52.214;0.116;2022-12-16T11:00:45;101769.25;;;15.48;21.06
55474;BME280;65220;52.214;0.116;2022-12-16T11:03:18;101772.25;;;15.70;21.16
55474;BME280;65220;52.214;0.116;2022-12-16T11:05:34;101770.70;;;14.51;21.35
55474;BME280;65220;52.214;0.116;2022-12-16T11:07:59;101768.47;;;15.40;21.19
55474;BME280;65220;52.214;0.116;2022-12-16T11:10:29;101769.36;;;14.94;21.37
55474;BME280;65220;52.214;0.116;2022-12-16T11:12:50;101769.00;;;15.93;21.28
55474;BME280;65220;52.214;0.116;2022-12-16T11:15:26;101768.73;;;15.37;21.28
55474;BME280;65220;52.214;0.116;2022-12-16T11:18:00;101771.30;;;15.84;21.24
55474;BME280;65220;52.214;0.116;2022-12-16T11:20:15;101772.04;;;15.61;21.18
55474;BME280;65220;52.214;0.116;2022-12-16T11:22:32;101773.07;;;15.98;21.17
55474;BME280;65220;52.214;0.116;2022-12-16T11:25:12;101771.38;;;15.60;21.29
55474;BME280;65220;52.214;0.116;2022-12-16T11:27:24;101771.19;;;15.90;21.05
55474;BME280;65220;52.214;0.116;2022-12-16T11:29:50;101766.82;;;15.99;20.99
55474;BME280;65220;52.214;0.116;2022-12-16T11:32:18;101763.24;;;15.47;21.30
55474;BME280;65220;52.214;0.116;2022-12-16T11:34:38;101765.97;;;15.69;20.90
55474;BME280;65220;52.214;0.116;2022-12-16T11:37:03;101765.69;;;15.85;21.05
55474;BME280;65220;52.214;0.116;2022-12-16T11:39:30;101769.53;;;15.72;21.02
55474;BME280;65220;52.214;0.116;2022-12-16T11:41:54;101769.09;;;16.09;20.87
55474;BME280;65220;52.214;0.116;2022-12-16T11:44:21;101771.11;;;15.76;21.02
55474;BME280;65220;52.214;0.116;2022-12-16T11:46:45;101763.62;;;16.17;20.95
55474;BME280;65220;52.214;0.116;2022-12-16T11:49:16;101765.63;;;15.99;21.09
55474;BME280;65220;52.214;0.116;2022-12-16T11:51:36;101765.13;;;15.40;21.13
55474;BME280;65220;52.214;0.116;2022-12-16T11:54:07;101766.71;;;15.98;20.90
55474;BME280;65220;52.214;0.116;2022-12-16T11:56:30;101767.60;;;15.63;21.09
55474;BME280;65220;52.214;0.116;2022-12-16T11:58:54;101766.40;;;15.78;20.98
55474;BME280;65220;52.214;0.116;2022-12-16T12:01:19;101767.59;;;15.44;20.96
55474;BME280;65220;52.214;0.116;2022-12-16T12:03:45;101762.54;;;15.43;21.10
55474;BME280;65220;52.214;0.116;2022-12-16T12:06:16;101764.06;;;15.50;21.13
55474;BME280;65220;52.214;0.116;2022-12-16T12:08:38;101762.18;;;15.41;21.20
55474;BME280;65220;52.214;0.116;2022-12-16T12:11:05;101761.28;;;15.71;20.97
55474;BME280;65220;52.214;0.116;2022-12-16T12:13:48;101760.27;;;15.29;20.97
55474;BME280;65220;52.214;0.116;2022-12-16T12:15:56;101758.60;;;15.51;21.13
55474;BME280;65220;52.214;0.116;2022-12-16T12:18:19;101755.72;;;15.00;21.17
55474;BME280;65220;52.214;0.116;2022-12-16T12:20:45;101753.42;;;15.07;21.21
55474;BME280;65220;52.214;0.116;2022-12-16T12:23:06;101749.74;;;15.27;21.12
55474;BME280;65220;52.214;0.116;2022-12-16T12:25:36;101750.20;;;14.44;21.32
55474;BME280;65220;52.214;0.116;2022-12-16T12:28:02;101750.88;;;14.83;21.26
55474;BME280;65220;52.214;0.116;2022-12-16T12:30:21;101751.12;;;14.54;21.60
55474;BME280;65220;52.214;0.116;2022-12-16T12:32:55;101752.80;;;14.57;21.44
55474;BME280;65220;52.214;0.116;2022-12-16T12:35:26;101750.57;;;14.44;21.40
55474;BME280;65220;52.214;0.116;2022-12-16T12:37:42;101747.06;;;14.70;21.49
55474;BME280;65220;52.214;0.116;2022-12-16T12:40:14;101750.14;;;14.55;21.38
55474;BME280;65220;52.214;0.116;2022-12-16T12:42:31;101748.88;;;13.73;21.62